createdAt,value
2023-05-14T00:01:09.528Z,101060.16
2023-05-14T00:10:08.415Z,101062.25
2023-05-14T00:13:38.643Z,101051.13
2023-05-14T00:17:16.801Z,101055.91
2023-05-14T00:20:35.962Z,101052.44
2023-05-14T00:23:50.630Z,101046.84
2023-05-14T00:27:47.368Z,101055.00
2023-05-14T00:30:53.079Z,101046.78
2023-05-14T00:33:58.551Z,101045.50
2023-05-14T00:37:12.745Z,101052.59
2023-05-14T00:40:40.318Z,101048.03
2023-05-14T00:43:47.872Z,101043.00
2023-05-14T00:46:52.940Z,101047.25
2023-05-14T00:50:18.261Z,101042.03
2023-05-14T00:53:33.820Z,101040.50
2023-05-14T01:00:40.253Z,101038.78
2023-05-14T01:03:53.806Z,101028.41
2023-05-14T01:07:15.425Z,101024.88
2023-05-14T01:10:31.762Z,101016.59
2023-05-14T01:14:09.608Z,101015.47
2023-05-14T01:17:13.550Z,101014.16
2023-05-14T01:20:19.269Z,101008.22
2023-05-14T01:23:37.869Z,100996.34
2023-05-14T01:27:00.064Z,101001.34
2023-05-14T01:30:33.576Z,100995.09
2023-05-14T01:33:42.971Z,100995.06
2023-05-14T01:36:58.851Z,100992.78
2023-05-14T01:40:08.399Z,100993.56
2023-05-14T01:43:20.241Z,100989.34
2023-05-14T01:46:26.327Z,100978.38
2023-05-14T01:50:14.635Z,100981.91
2023-05-14T01:57:38.118Z,100970.66
2023-05-14T02:00:59.383Z,100958.75
2023-05-14T02:04:15.820Z,100950.94
2023-05-14T02:07:28.903Z,100950.44
2023-05-14T02:10:54.821Z,100949.72
2023-05-14T02:14:05.369Z,100944.47
2023-05-14T02:17:18.187Z,100945.59
2023-05-14T02:20:43.864Z,100935.94
2023-05-14T02:23:50.708Z,100941.09
2023-05-14T02:27:05.451Z,100935.09
2023-05-14T02:34:28.484Z,100943.06
2023-05-14T02:37:55.185Z,100943.56
2023-05-14T02:41:02.896Z,100936.66
2023-05-14T02:44:18.165Z,100932.59
2023-05-14T02:48:07.452Z,100933.41
2023-05-14T02:51:28.367Z,100937.47
2023-05-14T02:54:57.300Z,100933.41
2023-05-14T02:58:15.010Z,100935.16
2023-05-14T03:01:22.349Z,100931.63
2023-05-14T03:04:31.915Z,100932.00
2023-05-14T03:07:59.607Z,100926.78
2023-05-14T03:11:04.452Z,100924.84
2023-05-14T03:14:19.011Z,100919.78
2023-05-14T03:17:42.479Z,100919.41
2023-05-14T03:20:54.827Z,100920.69
2023-05-14T03:24:02.125Z,100920.81
2023-05-14T03:27:09.267Z,100922.03
2023-05-14T03:30:20.065Z,100922.88
2023-05-14T03:33:35.935Z,100923.38
2023-05-14T03:36:59.121Z,100920.63
2023-05-14T03:40:26.297Z,100928.59
2023-05-14T03:47:05.621Z,100933.06
2023-05-14T03:50:12.787Z,100923.88
2023-05-14T03:53:19.982Z,100930.75
2023-05-14T03:56:26.736Z,100927.41
2023-05-14T03:59:37.228Z,100919.56
2023-05-14T04:03:06.391Z,100912.88
2023-05-14T04:06:43.770Z,100918.56
2023-05-14T04:10:17.491Z,100913.69
2023-05-14T04:13:41.295Z,100920.94
2023-05-14T04:16:56.861Z,100919.53
2023-05-14T04:20:25.076Z,100909.44
2023-05-14T04:23:38.550Z,100909.25
2023-05-14T04:26:57.395Z,100910.06
2023-05-14T04:30:06.357Z,100904.31
2023-05-14T04:37:18.117Z,100893.78
2023-05-14T04:40:27.922Z,100903.28
2023-05-14T04:43:48.935Z,100896.28
2023-05-14T04:47:06.689Z,100899.16
2023-05-14T04:50:36.388Z,100906.81
2023-05-14T04:57:23.111Z,100897.94
2023-05-14T05:00:30.994Z,100900.16
2023-05-14T05:03:40.923Z,100889.66
2023-05-14T05:07:13.941Z,100900.25
2023-05-14T05:10:27.008Z,100890.84
2023-05-14T05:13:51.526Z,100895.50
2023-05-14T05:17:01.268Z,100889.16
2023-05-14T05:20:16.446Z,100893.19
2023-05-14T05:23:30.978Z,100885.13
2023-05-14T05:26:41.390Z,100882.19
2023-05-14T05:29:45.968Z,100882.38
2023-05-14T05:33:02.124Z,100876.13
2023-05-14T05:36:21.250Z,100891.38
2023-05-14T05:39:35.294Z,100884.50
2023-05-14T05:46:59.405Z,100886.19
2023-05-14T05:50:07.737Z,100880.22
2023-05-14T05:53:23.934Z,100888.63
2023-05-14T05:56:35.120Z,100878.47
2023-05-14T06:00:19.762Z,100886.00
2023-05-14T06:03:42.138Z,100890.34
2023-05-14T06:07:05.138Z,100886.91
2023-05-14T06:10:13.140Z,100890.66
2023-05-14T06:13:30.736Z,100895.91
2023-05-14T06:17:02.187Z,100901.66
2023-05-14T06:20:15.618Z,100896.59
2023-05-14T06:23:42.419Z,100900.63
2023-05-14T06:27:33.308Z,100885.00
2023-05-14T06:30:50.350Z,100894.53
2023-05-14T06:34:22.060Z,100898.81
2023-05-14T06:37:36.515Z,100896.91
2023-05-14T06:40:57.288Z,100893.50
2023-05-14T06:44:10.454Z,100885.63
2023-05-14T06:47:31.070Z,100888.84
2023-05-14T06:50:45.849Z,100881.53
2023-05-14T06:53:51.684Z,100887.41
2023-05-14T06:57:06.042Z,100871.56
2023-05-14T07:00:24.022Z,100875.03
2023-05-14T07:08:19.898Z,100858.59
2023-05-14T07:11:41.062Z,100851.72
2023-05-14T07:14:52.192Z,100860.44
2023-05-14T07:18:11.573Z,100857.38
2023-05-14T07:21:22.725Z,100835.00
2023-05-14T07:24:41.280Z,100847.69
2023-05-14T07:27:55.987Z,100846.69
2023-05-14T07:31:11.726Z,100848.09
2023-05-14T07:34:22.864Z,100838.63
2023-05-14T07:42:31.764Z,100831.81
2023-05-14T07:45:40.479Z,100833.81
2023-05-14T07:48:47.869Z,100832.94
2023-05-14T07:52:01.809Z,100829.91
2023-05-14T07:55:18.353Z,100817.66
2023-05-14T07:58:41.602Z,100825.88
2023-05-14T08:02:07.363Z,100811.13
2023-05-14T08:05:22.383Z,100809.59
2023-05-14T08:08:31.313Z,100803.59
2023-05-14T08:11:36.769Z,100796.84
2023-05-14T08:14:47.556Z,100802.13
2023-05-14T08:17:57.652Z,100793.63
2023-05-14T08:21:04.585Z,100788.84
2023-05-14T08:24:11.853Z,100785.84
2023-05-14T08:27:27.797Z,100784.53
2023-05-14T08:30:35.475Z,100782.22
2023-05-14T08:33:58.643Z,100777.56
2023-05-14T08:37:23.767Z,100770.84
2023-05-14T08:40:44.400Z,100768.94
2023-05-14T08:44:18.455Z,100769.34
2023-05-14T08:47:25.652Z,100760.03
2023-05-14T08:54:28.276Z,100741.44
2023-05-14T08:57:40.571Z,100743.91
2023-05-14T09:00:45.627Z,100746.28
2023-05-14T09:04:07.234Z,100748.91
2023-05-14T09:07:32.753Z,100749.16
2023-05-14T09:11:04.785Z,100754.91
2023-05-14T09:14:36.248Z,100755.88
2023-05-14T09:18:02.803Z,100747.66
2023-05-14T09:21:17.857Z,100744.06
2023-05-14T09:24:35.914Z,100738.59
2023-05-14T09:27:58.632Z,100740.97
2023-05-14T09:31:31.973Z,100733.38
2023-05-14T09:34:50.237Z,100729.66
2023-05-14T09:38:13.791Z,100726.94
2023-05-14T09:41:36.461Z,100728.00
2023-05-14T09:44:46.600Z,100724.06
2023-05-14T09:47:49.863Z,100723.28
2023-05-14T09:50:53.316Z,100708.50
2023-05-14T09:53:56.379Z,100702.38
2023-05-14T09:57:06.535Z,100703.59
2023-05-14T10:00:27.380Z,100712.69
2023-05-14T10:03:48.156Z,100711.56
2023-05-14T10:07:08.161Z,100700.63
2023-05-14T10:15:43.073Z,100671.38
2023-05-14T10:18:57.623Z,100660.78
2023-05-14T10:22:15.653Z,100647.59
2023-05-14T10:25:33.224Z,100632.16
2023-05-14T10:28:39.085Z,100617.94
2023-05-14T10:31:52.109Z,100609.41
2023-05-14T10:35:02.694Z,100621.47
2023-05-14T10:38:10.483Z,100627.25
2023-05-14T10:41:18.233Z,100645.50
2023-05-14T10:44:22.093Z,100635.38
2023-05-14T10:47:39.210Z,100635.69
2023-05-14T10:50:57.554Z,100636.81
2023-05-14T10:54:21.443Z,100623.28
2023-05-14T10:57:46.108Z,100621.44
2023-05-14T11:01:07.176Z,100627.16
2023-05-14T11:04:32.308Z,100622.00
2023-05-14T11:07:56.976Z,100634.34
2023-05-14T11:11:00.378Z,100629.03
2023-05-14T11:14:05.611Z,100629.94
2023-05-14T11:17:10.659Z,100627.78
2023-05-14T11:20:27.890Z,100611.34
2023-05-14T11:23:37.948Z,100599.91
2023-05-14T11:26:42.309Z,100600.72
2023-05-14T11:29:48.759Z,100608.13
2023-05-14T11:32:53.186Z,100599.47
2023-05-14T11:35:57.718Z,100600.28
2023-05-14T11:39:07.385Z,100606.25
2023-05-14T11:42:29.574Z,100599.16
2023-05-14T11:45:50.568Z,100597.94
2023-05-14T11:48:53.941Z,100604.03
2023-05-14T11:52:03.669Z,100600.97
2023-05-14T11:55:13.095Z,100598.25
2023-05-14T11:58:26.593Z,100593.72
2023-05-14T12:01:41.162Z,100588.59
2023-05-14T12:04:49.850Z,100578.63
2023-05-14T12:07:57.428Z,100574.91
2023-05-14T12:11:09.818Z,100574.28
2023-05-14T12:14:22.491Z,100571.56
2023-05-14T12:17:33.274Z,100557.28
2023-05-14T12:20:37.345Z,100554.53
2023-05-14T12:23:48.596Z,100557.41
2023-05-14T12:26:55.783Z,100546.97
2023-05-14T12:33:24.078Z,100544.06
2023-05-14T12:36:28.796Z,100539.44
2023-05-14T12:39:34.394Z,100550.03
2023-05-14T12:42:38.265Z,100548.59
2023-05-14T12:45:49.296Z,100545.69
2023-05-14T12:49:09.031Z,100539.09
2023-05-14T12:55:22.400Z,100527.53
2023-05-14T12:58:26.055Z,100524.16
2023-05-14T13:01:49.022Z,100518.03
2023-05-14T13:05:18.165Z,100515.31
2023-05-14T13:08:26.565Z,100495.72
2023-05-14T13:11:42.876Z,100494.59
2023-05-14T13:15:03.725Z,100499.09
2023-05-14T13:18:18.830Z,100491.22
2023-05-14T13:21:28.489Z,100487.03
2023-05-14T13:24:32.806Z,100489.44
2023-05-14T13:27:37.325Z,100483.66
2023-05-14T13:31:20.658Z,100472.75
2023-05-14T13:34:23.900Z,100473.25
2023-05-14T13:37:39.719Z,100459.13
2023-05-14T13:41:03.496Z,100460.25
2023-05-14T13:44:20.250Z,100448.50
2023-05-14T13:47:23.854Z,100444.97
2023-05-14T13:50:33.838Z,100437.09
2023-05-14T13:53:36.966Z,100443.69
2023-05-14T13:56:41.473Z,100433.41
2023-05-14T13:59:51.236Z,100421.19
2023-05-14T14:03:01.379Z,100424.41
2023-05-14T14:06:17.446Z,100427.97
2023-05-14T14:09:41.064Z,100422.72
2023-05-14T14:12:45.260Z,100410.28
2023-05-14T14:15:49.159Z,100412.72
2023-05-14T14:19:09.651Z,100412.94
2023-05-14T14:22:19.201Z,100412.84
2023-05-14T14:25:22.677Z,100412.19
2023-05-14T14:28:29.197Z,100411.63
2023-05-14T14:31:45.557Z,100418.41
2023-05-14T14:35:05.981Z,100405.94
2023-05-14T14:38:16.171Z,100405.97
2023-05-14T14:41:19.742Z,100406.28
2023-05-14T14:44:31.133Z,100403.09
2023-05-14T14:47:36.649Z,100402.34
2023-05-14T14:50:40.353Z,100402.97
2023-05-14T14:53:48.677Z,100386.81
2023-05-14T14:57:02.996Z,100396.72
2023-05-14T15:00:18.031Z,100397.03
2023-05-14T15:03:31.733Z,100383.38
2023-05-14T15:06:38.600Z,100377.41
2023-05-14T15:09:49.624Z,100372.94
2023-05-14T15:13:13.297Z,100369.81
2023-05-14T15:16:29.696Z,100369.16
2023-05-14T15:19:52.502Z,100353.88
2023-05-14T15:23:25.871Z,100343.41
2023-05-14T15:26:44.498Z,100358.16
2023-05-14T15:29:47.722Z,100350.91
2023-05-14T15:33:10.369Z,100349.84
2023-05-14T15:36:46.496Z,100353.31
2023-05-14T15:39:53.427Z,100351.38
2023-05-14T15:43:04.331Z,100347.63
2023-05-14T15:46:08.242Z,100349.97
2023-05-14T15:49:24.363Z,100346.72
2023-05-14T15:52:45.498Z,100343.66
2023-05-14T15:56:01.458Z,100329.81
2023-05-14T15:59:04.731Z,100317.16
2023-05-14T16:02:09.431Z,100303.09
2023-05-14T16:05:14.618Z,100296.66
2023-05-14T16:08:31.133Z,100291.53
2023-05-14T16:11:48.936Z,100282.16
2023-05-14T16:15:11.959Z,100287.38
2023-05-14T16:18:28.435Z,100293.47
2023-05-14T16:21:34.612Z,100296.84
2023-05-14T16:24:37.879Z,100292.09
2023-05-14T16:27:58.218Z,100298.91
2023-05-14T16:31:15.761Z,100296.19
2023-05-14T16:34:39.266Z,100293.84
2023-05-14T16:37:51.823Z,100296.66
2023-05-14T16:40:55.150Z,100289.94
2023-05-14T16:44:01.695Z,100289.03
2023-05-14T16:47:15.768Z,100279.25
2023-05-14T16:50:19.446Z,100271.75
2023-05-14T16:53:23.517Z,100270.00
2023-05-14T16:56:39.873Z,100259.38
2023-05-14T17:00:03.069Z,100258.75
2023-05-14T17:03:22.374Z,100258.75
2023-05-14T17:06:32.095Z,100245.31
2023-05-14T17:09:36.059Z,100247.72
2023-05-14T17:12:40.487Z,100250.72
2023-05-14T17:15:43.591Z,100242.59
2023-05-14T17:18:48.022Z,100233.91
2023-05-14T17:22:04.464Z,100237.78
2023-05-14T17:25:19.202Z,100232.00
2023-05-14T17:28:42.027Z,100239.69
2023-05-14T17:32:03.967Z,100228.94
2023-05-14T17:35:07.989Z,100227.34
2023-05-14T17:38:11.549Z,100215.94
2023-05-14T17:41:21.778Z,100213.53
2023-05-14T17:44:38.569Z,100213.88
2023-05-14T17:47:44.538Z,100213.72
2023-05-14T17:50:48.702Z,100209.06
2023-05-14T17:53:56.748Z,100199.28
2023-05-14T17:57:18.159Z,100204.59
2023-05-14T18:00:21.471Z,100194.31
2023-05-14T18:03:44.030Z,100183.56
2023-05-14T18:07:18.030Z,100185.50
2023-05-14T18:10:41.021Z,100180.50
2023-05-14T18:14:06.108Z,100183.56
2023-05-14T18:17:09.517Z,100174.59
2023-05-14T18:20:34.118Z,100173.16
2023-05-14T18:24:08.119Z,100178.91
2023-05-14T18:27:30.880Z,100181.00
2023-05-14T18:30:35.459Z,100186.44
2023-05-14T18:33:39.059Z,100195.75
2023-05-14T18:36:48.340Z,100196.38
2023-05-14T18:39:58.764Z,100193.19
2023-05-14T18:43:22.834Z,100190.13
2023-05-14T18:46:47.885Z,100191.91
2023-05-14T18:50:05.689Z,100195.41
2023-05-14T18:53:22.165Z,100189.81
2023-05-14T18:56:47.865Z,100186.13
2023-05-14T19:00:11.763Z,100187.91
2023-05-14T19:03:21.278Z,100198.66
2023-05-14T19:06:25.860Z,100190.28
2023-05-14T19:09:29.576Z,100195.59
2023-05-14T19:12:33.669Z,100192.69
2023-05-14T19:15:39.287Z,100176.69
2023-05-14T19:18:43.065Z,100176.19
2023-05-14T19:21:47.165Z,100167.66
2023-05-14T19:24:53.522Z,100174.41
2023-05-14T19:28:02.283Z,100173.75
2023-05-14T19:31:16.115Z,100177.59
2023-05-14T19:34:24.596Z,100168.47
2023-05-14T19:37:28.015Z,100162.22
2023-05-14T19:40:38.586Z,100162.22
2023-05-14T19:43:42.593Z,100153.56
2023-05-14T19:46:54.169Z,100164.31
2023-05-14T19:50:05.148Z,100151.94
2023-05-14T19:53:12.212Z,100156.75
2023-05-14T19:56:16.380Z,100152.09
2023-05-14T19:59:25.162Z,100160.75
2023-05-14T20:02:41.182Z,100155.94
2023-05-14T20:05:57.754Z,100153.09
2023-05-14T20:09:20.797Z,100150.81
2023-05-14T20:12:41.633Z,100129.78
2023-05-14T20:16:04.809Z,100133.22
2023-05-14T20:19:30.635Z,100136.41
2023-05-14T20:22:57.880Z,100134.44
2023-05-14T20:26:20.757Z,100127.03
2023-05-14T20:29:39.900Z,100135.25
2023-05-14T20:33:01.915Z,100120.31
2023-05-14T20:36:12.235Z,100119.81
2023-05-14T20:39:16.568Z,100112.44
2023-05-14T20:42:21.404Z,100106.19
2023-05-14T20:45:38.275Z,100107.00
2023-05-14T20:48:55.372Z,100106.34
2023-05-14T20:52:15.494Z,100102.31
2023-05-14T20:55:38.498Z,100091.91
2023-05-14T20:59:01.538Z,100099.66
2023-05-14T21:02:17.861Z,100087.91
2023-05-14T21:05:44.423Z,100080.22
2023-05-14T21:08:58.255Z,100082.66
2023-05-14T21:12:02.486Z,100076.38
2023-05-14T21:15:07.307Z,100065.47
2023-05-14T21:18:22.742Z,100069.66
2023-05-14T21:21:26.350Z,100071.75
2023-05-14T21:24:29.705Z,100074.13
2023-05-14T21:27:43.671Z,100072.84
2023-05-14T21:30:53.466Z,100062.47
2023-05-14T21:33:57.518Z,100062.94
2023-05-14T21:37:09.089Z,100053.75
2023-05-14T21:40:21.130Z,100045.28
2023-05-14T21:43:28.647Z,100027.16
2023-05-14T21:46:33.959Z,100010.47
2023-05-14T21:49:38.373Z,100003.22
2023-05-14T21:52:54.439Z,100013.13
2023-05-14T21:56:15.356Z,100001.53
2023-05-14T21:59:36.470Z,99999.75
2023-05-14T22:02:59.409Z,100001.13
2023-05-14T22:06:13.291Z,100002.00
2023-05-14T22:09:24.518Z,100002.47
2023-05-14T22:12:36.096Z,100003.66
2023-05-14T22:15:47.395Z,100001.44
2023-05-14T22:19:06.762Z,100010.13
2023-05-14T22:22:23.984Z,100011.69
2023-05-14T22:25:40.616Z,100012.63
2023-05-14T22:28:47.883Z,100006.78
2023-05-14T22:31:53.196Z,100011.03
2023-05-14T22:35:02.013Z,100004.81
2023-05-14T22:38:17.738Z,100003.81
2023-05-14T22:41:40.473Z,100002.53
2023-05-14T22:45:02.621Z,100003.19
2023-05-14T22:48:06.123Z,100004.31
2023-05-14T22:51:16.708Z,99999.97
2023-05-14T22:54:28.053Z,99994.84
2023-05-14T22:57:44.348Z,100000.94
2023-05-14T23:01:01.259Z,100000.88
2023-05-14T23:04:24.153Z,99996.41
2023-05-14T23:07:47.373Z,100010.03
2023-05-14T23:10:59.148Z,99997.47
2023-05-14T23:14:03.568Z,99994.50
2023-05-14T23:17:10.386Z,99996.13
2023-05-14T23:20:23.955Z,99983.28
2023-05-14T23:23:40.480Z,99983.94
2023-05-14T23:27:00.351Z,99970.44
2023-05-14T23:30:27.154Z,99962.25
2023-05-14T23:33:41.665Z,99955.53
2023-05-14T23:36:49.799Z,99941.22
2023-05-14T23:39:53.924Z,99942.88
2023-05-14T23:43:03.928Z,99941.63
2023-05-14T23:46:08.482Z,99937.25
2023-05-14T23:49:12.952Z,99932.75
2023-05-14T23:52:19.883Z,99935.47
2023-05-14T23:55:40.217Z,99920.53
2023-05-14T23:58:47.708Z,99911.69
